Time;durP1;ratioP1;P1;durP2;ratioP2;P2;SDS_P1;SDS_P2;PMS_P1;PMS_P2;Temp;Humidity;BMP_temperature;BMP_pressure;BME280_temperature;BME280_humidity;BME280_pressure;Samples;Min_cycle;Max_cycle;Signal;HPM_P1;HPM_P2
2021/04/29 00:02:13;;;;;;;;;;;;;;;10.82;40.33;99539.36;1787808;79;20313;-81
2021/04/29 00:04:38;;;;;;;;;;;;;;;10.84;40.41;99537.36;1789759;79;20481;-80
2021/04/29 00:07:04;;;;;;;;;;;;;;;10.86;40.12;99534.03;1774251;78;21255;-82
2021/04/29 00:09:31;;;;;;;;;;;;;;;10.81;40.24;99540.34;1788449;79;20516;-81
2021/04/29 00:11:57;;;;;;;;;;;;;;;10.78;40.43;99530.94;1791103;79;20167;-82
2021/04/29 00:14:22;;;;;;;;;;;;;;;10.73;40.64;99532.77;1794416;79;21007;-80
2021/04/29 00:16:48;;;;;;;;;;;;;;;10.72;40.55;99533.79;1789763;78;20316;-81
2021/04/29 00:19:14;;;;;;;;;;;;;;;10.76;40.37;99530.30;1789080;78;21212;-79
2021/04/29 00:21:40;;;;;;;;;;;;;;;10.74;40.68;99530.47;1748883;80;20254;-82
2021/04/29 00:24:07;;;;;;;;;;;;;;;10.73;40.62;99531.45;1785002;79;20211;-82
2021/04/29 00:26:35;;;;;;;;;;;;;;;10.66;41.22;99529.20;1785541;80;20341;-81
2021/04/29 00:29:00;;;;;;;;;;;;;;;10.69;40.96;99524.89;1784245;80;20262;-82
2021/04/29 00:31:26;;;;;;;;;;;;;;;10.65;41.20;99528.05;1781129;79;21198;-81
2021/04/29 00:33:52;;;;;;;;;;;;;;;10.65;41.02;99526.22;1784102;80;20546;-81
2021/04/29 00:36:18;;;;;;;;;;;;;;;10.61;41.25;99522.27;1782946;80;20519;-83
2021/04/29 00:38:43;;;;;;;;;;;;;;;10.62;41.34;99525.24;1786864;78;20660;-82
2021/04/29 00:41:09;;;;;;;;;;;;;;;10.58;41.59;99522.13;1782769;80;20162;-82
2021/04/29 00:43:35;;;;;;;;;;;;;;;10.55;41.73;99522.95;1783281;80;21283;-81
2021/04/29 00:46:00;;;;;;;;;;;;;;;10.50;42.10;99520.02;1783966;80;20864;-87
2021/04/29 00:48:28;;;;;;;;;;;;;;;10.44;42.29;99518.05;1784533;80;20206;-80
2021/04/29 00:50:53;;;;;;;;;;;;;;;10.44;42.38;99524.66;1786034;79;20967;-85
2021/04/29 00:53:19;;;;;;;;;;;;;;;10.34;42.51;99513.80;1786005;79;20194;-84
2021/04/29 00:55:45;;;;;;;;;;;;;;;10.34;42.52;99519.08;1785481;79;21204;-84
2021/04/29 00:58:10;;;;;;;;;;;;;;;10.28;42.80;99517.09;1783366;79;20194;-82
2021/04/29 01:00:37;;;;;;;;;;;;;;;10.25;42.88;99517.42;1783078;80;20630;-82
2021/04/29 01:03:09;;;;;;;;;;;;;;;10.28;42.80;99511.81;1786106;79;20250;-84
2021/04/29 01:05:37;;;;;;;;;;;;;;;10.27;42.91;99503.59;1784951;80;20285;-83
2021/04/29 01:08:11;;;;;;;;;;;;;;;10.20;43.56;99504.73;1783580;80;21548;-84
2021/04/29 01:10:48;;;;;;;;;;;;;;;10.24;43.65;99501.28;1785087;80;20277;-83
2021/04/29 01:13:17;;;;;;;;;;;;;;;10.23;44.12;99500.95;1784471;80;20285;-82
2021/04/29 01:15:43;;;;;;;;;;;;;;;10.28;44.13;99496.48;1784464;79;20294;-81
2021/04/29 01:18:09;;;;;;;;;;;;;;;10.29;44.21;99492.35;1782667;80;20379;-82
2021/04/29 01:21:04;;;;;;;;;;;;;;;10.34;43.80;99495.33;1788079;78;21150;-82
2021/04/29 01:23:51;;;;;;;;;;;;;;;10.31;43.78;99492.99;1791354;78;20612;-80
2021/04/29 01:26:32;;;;;;;;;;;;;;;10.32;43.69;99497.30;1793063;78;20250;-79
2021/04/29 01:29:00;;;;;;;;;;;;;;;10.25;44.19;99498.95;1793769;78;20262;-86
2021/04/29 01:31:31;;;;;;;;;;;;;;;10.25;43.88;99496.31;1778353;78;20245;-80
2021/04/29 01:33:58;;;;;;;;;;;;;;;10.26;44.22;99493.20;1789391;78;21171;-81
2021/04/29 01:36:23;;;;;;;;;;;;;;;10.16;44.62;99497.33;1793015;78;20281;-79
2021/04/29 01:38:49;;;;;;;;;;;;;;;10.18;44.44;99500.64;1796350;78;20235;-80
2021/04/29 01:41:15;;;;;;;;;;;;;;;10.15;44.72;99503.63;1793751;78;20205;-79
2021/04/29 01:43:41;;;;;;;;;;;;;;;10.14;44.87;99494.05;1791593;78;20257;-78
2021/04/29 01:46:06;;;;;;;;;;;;;;;10.13;44.85;99492.39;1789004;78;21169;-84
2021/04/29 01:48:32;;;;;;;;;;;;;;;10.12;44.87;99488.94;1794682;78;20525;-80
2021/04/29 01:50:57;;;;;;;;;;;;;;;10.15;44.82;99491.75;1794138;78;20311;-77
2021/04/29 01:53:24;;;;;;;;;;;;;;;10.08;45.17;99488.13;1794030;78;20205;-84
2021/04/29 01:55:50;;;;;;;;;;;;;;;10.08;45.23;99494.73;1792711;78;20640;-79
2021/04/29 01:58:15;;;;;;;;;;;;;;;10.03;45.44;99497.36;1793814;78;21213;-81
2021/04/29 02:00:41;;;;;;;;;;;;;;;10.00;45.57;99496.38;1795397;78;20237;-87
2021/04/29 02:03:06;;;;;;;;;;;;;;;9.88;46.00;99487.17;1795057;78;20174;-79
2021/04/29 02:05:32;;;;;;;;;;;;;;;9.88;45.87;99492.45;1793353;78;21152;-82
2021/04/29 02:07:58;;;;;;;;;;;;;;;9.86;46.14;99495.25;1793532;78;20192;-80
2021/04/29 02:10:25;;;;;;;;;;;;;;;9.84;46.18;99485.88;1790343;78;21244;-80
2021/04/29 02:12:54;;;;;;;;;;;;;;;9.79;46.90;99489.50;1793186;78;20175;-85
2021/04/29 02:15:21;;;;;;;;;;;;;;;9.78;46.79;99486.55;1795245;78;20249;-79
2021/04/29 02:17:57;;;;;;;;;;;;;;;9.73;47.11;99481.78;1780401;78;20559;-79
2021/04/29 02:20:22;;;;;;;;;;;;;;;9.70;47.12;99481.61;1795328;78;20254;-81
2021/04/29 02:22:48;;;;;;;;;;;;;;;9.68;47.52;99482.28;1760209;78;21276;-80
2021/04/29 02:25:14;;;;;;;;;;;;;;;9.67;47.92;99479.31;1803012;78;20178;-80
2021/04/29 02:27:40;;;;;;;;;;;;;;;9.69;48.07;99478.66;1810136;78;20238;-79
2021/04/29 02:30:08;;;;;;;;;;;;;;;9.67;48.25;99474.54;1808836;78;20279;-80
2021/04/29 02:32:34;;;;;;;;;;;;;;;9.64;48.51;99464.33;1780955;78;20310;-80
2021/04/29 02:35:00;;;;;;;;;;;;;;;9.73;47.89;99475.70;1800895;78;21306;-80
2021/04/29 02:37:26;;;;;;;;;;;;;;;9.69;48.10;99466.80;1805297;78;20162;-80
2021/04/29 02:39:51;;;;;;;;;;;;;;;9.65;48.26;99466.80;1801246;78;20481;-80
2021/04/29 02:42:17;;;;;;;;;;;;;;;9.65;48.18;99471.25;1797300;78;20205;-80
2021/04/29 02:44:43;;;;;;;;;;;;;;;9.63;48.14;99463.52;1802833;78;20320;-80
2021/04/29 02:47:08;;;;;;;;;;;;;;;9.61;48.41;99468.61;1804913;78;21454;-82
2021/04/29 02:49:34;;;;;;;;;;;;;;;9.60;48.49;99469.12;1810019;78;20198;-82
2021/04/29 02:52:00;;;;;;;;;;;;;;;9.55;49.02;99468.77;1802958;78;20217;-81
2021/04/29 02:54:25;;;;;;;;;;;;;;;9.59;48.71;99464.83;1799970;78;20199;-82
2021/04/29 02:56:51;;;;;;;;;;;;;;;9.56;49.25;99467.80;1801001;78;20281;-81
2021/04/29 02:59:18;;;;;;;;;;;;;;;9.59;48.98;99467.97;1801701;78;21209;-81
2021/04/29 03:01:43;;;;;;;;;;;;;;;9.53;49.31;99471.58;1804771;78;20250;-81
2021/04/29 03:04:09;;;;;;;;;;;;;;;9.57;49.06;99473.88;1804660;78;20912;-80
2021/04/29 03:06:35;;;;;;;;;;;;;;;9.50;49.64;99475.05;1796064;78;20529;-80
2021/04/29 03:09:01;;;;;;;;;;;;;;;9.51;49.73;99472.75;1799735;78;20263;-80
2021/04/29 03:11:29;;;;;;;;;;;;;;;9.52;49.35;99471.74;1794462;78;21278;-80
2021/04/29 03:13:54;;;;;;;;;;;;;;;9.51;49.75;99468.80;1803758;78;20525;-81
2021/04/29 03:16:20;;;;;;;;;;;;;;;9.49;49.81;99472.08;1800505;78;20221;-81
2021/04/29 03:18:46;;;;;;;;;;;;;;;9.49;49.71;99466.80;1789362;78;21357;-81
2021/04/29 03:21:11;;;;;;;;;;;;;;;9.46;50.20;99464.50;1783651;78;20186;-81
2021/04/29 03:23:38;;;;;;;;;;;;;;;9.48;49.91;99462.54;1792344;78;21189;-80
2021/04/29 03:26:04;;;;;;;;;;;;;;;9.45;50.32;99461.55;1774953;78;20263;-80
2021/04/29 03:28:30;;;;;;;;;;;;;;;9.45;50.32;99459.73;1794104;78;20460;-80
2021/04/29 03:30:56;;;;;;;;;;;;;;;9.44;50.63;99461.22;1780816;79;20300;-80
2021/04/29 03:33:22;;;;;;;;;;;;;;;9.43;51.12;99466.14;1789633;78;21080;-81
2021/04/29 03:35:48;;;;;;;;;;;;;;;9.43;50.83;99465.67;1797297;78;22020;-81
2021/04/29 03:38:13;;;;;;;;;;;;;;;9.41;51.35;99469.45;1791131;78;20207;-86
2021/04/29 03:40:39;;;;;;;;;;;;;;;9.33;52.29;99467.64;1795374;78;20217;-81
2021/04/29 03:43:05;;;;;;;;;;;;;;;9.30;52.80;99471.42;1789669;78;20183;-82
2021/04/29 03:45:31;;;;;;;;;;;;;;;9.38;52.89;99471.09;1792878;78;20330;-83
2021/04/29 03:47:56;;;;;;;;;;;;;;;9.42;52.54;99465.84;1796946;78;21506;-84
2021/04/29 03:50:22;;;;;;;;;;;;;;;9.42;52.66;99463.20;1796235;78;21210;-81
2021/04/29 03:52:47;;;;;;;;;;;;;;;9.40;52.72;99467.80;1789931;78;20271;-80
2021/04/29 03:55:13;;;;;;;;;;;;;;;9.46;52.47;99467.13;1791651;78;20194;-81
2021/04/29 03:57:39;;;;;;;;;;;;;;;9.46;52.65;99459.23;1790553;78;20193;-81
2021/04/29 04:00:05;;;;;;;;;;;;;;;9.45;53.02;99464.19;1790889;78;21384;-82
2021/04/29 04:02:32;;;;;;;;;;;;;;;9.50;52.78;99457.91;1793087;78;20524;-80
2021/04/29 04:04:58;;;;;;;;;;;;;;;9.49;52.97;99458.89;1795781;78;20526;-79
2021/04/29 04:07:23;;;;;;;;;;;;;;;9.53;52.70;99456.27;1796649;78;20201;-79
2021/04/29 04:09:49;;;;;;;;;;;;;;;9.56;52.60;99454.62;1794150;78;20311;-80
2021/04/29 04:12:15;;;;;;;;;;;;;;;9.46;53.28;99457.91;1791692;78;21443;-78
2021/04/29 04:14:40;;;;;;;;;;;;;;;9.51;53.10;99457.75;1790785;78;20190;-79
2021/04/29 04:17:06;;;;;;;;;;;;;;;9.47;53.43;99460.37;1792572;78;20210;-79
2021/04/29 04:19:31;;;;;;;;;;;;;;;9.48;53.53;99463.86;1794819;78;20413;-80
2021/04/29 04:21:57;;;;;;;;;;;;;;;9.50;53.70;99466.64;1789675;78;20484;-82
2021/04/29 04:24:23;;;;;;;;;;;;;;;9.55;53.31;99471.41;1782818;80;21218;-81
2021/04/29 04:26:48;;;;;;;;;;;;;;;9.59;53.27;99465.33;1784318;79;21084;-80
2021/04/29 04:29:14;;;;;;;;;;;;;;;9.61;53.31;99465.98;1781898;79;20210;-82
2021/04/29 04:31:39;;;;;;;;;;;;;;;9.60;53.39;99463.00;1788836;80;20492;-79
2021/04/29 04:34:05;;;;;;;;;;;;;;;9.54;53.92;99465.83;1782550;80;20174;-80
2021/04/29 04:36:31;;;;;;;;;;;;;;;9.57;53.76;99457.59;1780736;80;21163;-79
2021/04/29 04:38:58;;;;;;;;;;;;;;;9.54;54.16;99463.20;1787007;80;20394;-81
2021/04/29 04:41:23;;;;;;;;;;;;;;;9.56;54.14;99459.89;1783567;80;20325;-80
2021/04/29 04:43:49;;;;;;;;;;;;;;;9.52;54.52;99452.82;1784497;80;20697;-79
2021/04/29 04:46:15;;;;;;;;;;;;;;;9.52;54.86;99453.30;1782388;79;20214;-81
2021/04/29 04:48:40;;;;;;;;;;;;;;;9.56;54.98;99457.25;1782550;80;21188;-79
2021/04/29 04:51:06;;;;;;;;;;;;;;;9.58;54.94;99455.27;1785580;80;20226;-83
2021/04/29 04:53:31;;;;;;;;;;;;;;;9.55;55.49;99462.19;1783024;79;20577;-79
2021/04/29 04:55:57;;;;;;;;;;;;;;;9.60;55.57;99459.89;1784800;80;20473;-81
2021/04/29 04:58:23;;;;;;;;;;;;;;;9.64;56.04;99459.87;1782270;80;20427;-80
2021/04/29 05:00:50;;;;;;;;;;;;;;;9.66;56.07;99455.27;1782639;79;21243;-80
2021/04/29 05:03:16;;;;;;;;;;;;;;;9.73;56.08;99458.55;1783301;79;20309;-82
2021/04/29 05:05:44;;;;;;;;;;;;;;;9.72;56.49;99455.08;1783205;79;20210;-82
2021/04/29 05:08:09;;;;;;;;;;;;;;;9.86;55.82;99446.47;1778251;79;20268;-79
2021/04/29 05:10:35;;;;;;;;;;;;;;;9.96;55.58;99450.25;1781880;79;20304;-82
2021/04/29 05:13:03;;;;;;;;;;;;;;;9.97;55.73;99447.92;1782518;79;21114;-80
2021/04/29 05:15:31;;;;;;;;;;;;;;;9.99;55.87;99448.59;1784872;80;21038;-81
2021/04/29 05:17:57;;;;;;;;;;;;;;;10.04;55.99;99451.54;1784698;80;20743;-81
2021/04/29 05:20:23;;;;;;;;;;;;;;;10.00;56.59;99448.91;1783700;78;20225;-80
2021/04/29 05:22:50;;;;;;;;;;;;;;;10.09;56.50;99444.94;1803663;78;20411;-80
2021/04/29 05:25:15;;;;;;;;;;;;;;;10.10;56.70;99439.97;1807308;78;22615;-80
2021/04/29 05:27:41;;;;;;;;;;;;;;;10.10;56.91;99441.29;1801712;78;20247;-81
2021/04/29 05:30:07;;;;;;;;;;;;;;;10.13;57.20;99435.20;1800453;78;20205;-82
2021/04/29 05:32:33;;;;;;;;;;;;;;;10.28;56.90;99436.60;1803520;78;20281;-82
2021/04/29 05:34:59;;;;;;;;;;;;;;;10.34;56.99;99438.58;1798109;78;20162;-78
2021/04/29 05:37:25;;;;;;;;;;;;;;;10.44;56.87;99434.44;1800820;78;21123;-82
2021/04/29 05:39:51;;;;;;;;;;;;;;;10.48;57.17;99430.94;1802804;78;20288;-81
2021/04/29 05:42:17;;;;;;;;;;;;;;;10.52;57.26;99424.33;1795698;78;20262;-85
2021/04/29 05:44:42;;;;;;;;;;;;;;;10.59;57.35;99428.71;1798566;78;20581;-83
2021/04/29 05:47:08;;;;;;;;;;;;;;;10.68;57.39;99428.17;1807169;78;20247;-81
2021/04/29 05:49:34;;;;;;;;;;;;;;;10.69;57.59;99424.55;1799377;78;21261;-81
2021/04/29 05:52:00;;;;;;;;;;;;;;;10.75;57.57;99421.20;1804960;78;20311;-85
2021/04/29 05:54:25;;;;;;;;;;;;;;;10.87;57.55;99422.11;1806876;78;20494;-82
2021/04/29 05:56:51;;;;;;;;;;;;;;;10.99;57.09;99421.21;1804800;78;20208;-80
2021/04/29 05:59:16;;;;;;;;;;;;;;;11.08;57.26;99418.32;1800796;78;20297;-82
2021/04/29 06:01:42;;;;;;;;;;;;;;;11.16;57.17;99419.27;1800573;78;21425;-84
2021/04/29 06:04:08;;;;;;;;;;;;;;;11.21;57.27;99415.58;1800816;78;20201;-81
2021/04/29 06:06:33;;;;;;;;;;;;;;;11.31;57.06;99414.81;1800286;78;20248;-82
2021/04/29 06:08:59;;;;;;;;;;;;;;;11.39;57.12;99416.08;1804491;78;20275;-80
2021/04/29 06:11:24;;;;;;;;;;;;;;;11.44;57.08;99407.09;1796099;78;20193;-83
2021/04/29 06:13:50;;;;;;;;;;;;;;;11.38;57.47;99404.36;1802424;78;21276;-81
2021/04/29 06:16:16;;;;;;;;;;;;;;;11.48;57.51;99405.75;1799464;78;20588;-81
2021/04/29 06:18:43;;;;;;;;;;;;;;;11.60;57.22;99403.97;1802100;78;20151;-82
2021/04/29 06:21:09;;;;;;;;;;;;;;;11.66;57.37;99404.06;1804144;78;21191;-83
2021/04/29 06:23:34;;;;;;;;;;;;;;;11.77;57.07;99392.72;1773827;78;20284;-82
2021/04/29 06:26:00;;;;;;;;;;;;;;;11.90;56.98;99397.36;1793762;78;21197;-85
2021/04/29 06:28:28;;;;;;;;;;;;;;;11.99;56.55;99389.19;1797592;78;20174;-83
2021/04/29 06:30:54;;;;;;;;;;;;;;;12.06;56.44;99389.27;1799545;78;20222;-82
2021/04/29 06:33:23;;;;;;;;;;;;;;;12.21;56.23;99392.72;1795352;78;20283;-81
2021/04/29 06:35:48;;;;;;;;;;;;;;;12.27;56.26;99388.48;1795612;78;20192;-81
2021/04/29 06:38:14;;;;;;;;;;;;;;;12.27;56.28;99382.38;1801461;78;21973;-81
2021/04/29 06:40:39;;;;;;;;;;;;;;;12.31;56.15;99379.69;1794390;78;20130;-83
2021/04/29 06:43:05;;;;;;;;;;;;;;;12.38;56.24;99382.73;1796380;78;20235;-84
2021/04/29 06:45:30;;;;;;;;;;;;;;;12.46;56.20;99392.39;1802190;78;20231;-82
2021/04/29 06:47:56;;;;;;;;;;;;;;;12.55;55.85;99385.97;1794642;78;20489;-82
2021/04/29 06:50:21;;;;;;;;;;;;;;;12.66;55.61;99395.25;1779707;78;21882;-82
2021/04/29 06:52:47;;;;;;;;;;;;;;;12.77;55.55;99383.81;1793060;78;20221;-82
2021/04/29 06:55:13;;;;;;;;;;;;;;;12.83;55.38;99385.20;1798120;78;20192;-82
2021/04/29 06:57:38;;;;;;;;;;;;;;;12.87;55.40;99391.77;1797609;78;21344;-83
2021/04/29 07:00:05;;;;;;;;;;;;;;;13.11;54.95;99383.09;1800066;78;20292;-83
2021/04/29 07:02:31;;;;;;;;;;;;;;;13.19;54.77;99390.92;1796160;78;20917;-83
2021/04/29 07:04:56;;;;;;;;;;;;;;;13.24;54.58;99395.14;1794481;78;20216;-82
2021/04/29 07:07:22;;;;;;;;;;;;;;;13.35;54.14;99383.73;1795512;78;20192;-82
2021/04/29 07:09:48;;;;;;;;;;;;;;;13.37;54.09;99385.16;1802011;78;20870;-82
2021/04/29 07:12:13;;;;;;;;;;;;;;;13.46;53.96;99385.33;1795293;78;20206;-81
2021/04/29 07:14:41;;;;;;;;;;;;;;;13.59;53.86;99383.77;1798909;78;21279;-81
2021/04/29 07:17:08;;;;;;;;;;;;;;;13.64;53.69;99381.34;1799897;78;20217;-82
2021/04/29 07:19:34;;;;;;;;;;;;;;;13.71;53.54;99380.89;1796296;78;20511;-81
2021/04/29 07:21:59;;;;;;;;;;;;;;;13.75;53.72;99385.29;1801983;78;20186;-82
2021/04/29 07:24:25;;;;;;;;;;;;;;;13.80;53.56;99384.22;1791411;78;20226;-82
2021/04/29 07:26:50;;;;;;;;;;;;;;;13.83;53.41;99383.31;1794178;78;21187;-83
2021/04/29 07:29:16;;;;;;;;;;;;;;;14.00;53.06;99386.45;1795873;78;20215;-82
2021/04/29 07:31:42;;;;;;;;;;;;;;;14.13;52.81;99382.22;1792753;78;20270;-82
2021/04/29 07:34:08;;;;;;;;;;;;;;;14.26;52.53;99378.30;1794253;78;20260;-82
2021/04/29 07:36:35;;;;;;;;;;;;;;;14.44;51.95;99379.56;1790919;78;20435;-82
2021/04/29 07:39:03;;;;;;;;;;;;;;;14.57;51.62;99378.25;1786876;78;21637;-82
2021/04/29 07:41:29;;;;;;;;;;;;;;;14.72;51.36;99376.79;1796087;78;20251;-83
2021/04/29 07:43:56;;;;;;;;;;;;;;;14.69;51.22;99367.89;1795180;78;20178;-82
2021/04/29 07:46:22;;;;;;;;;;;;;;;14.71;51.34;99368.50;1792304;78;20523;-82
2021/04/29 07:48:47;;;;;;;;;;;;;;;14.80;51.41;99357.98;1792856;78;20170;-82
2021/04/29 07:51:15;;;;;;;;;;;;;;;14.85;51.26;99361.36;1792643;78;22108;-83
2021/04/29 07:53:40;;;;;;;;;;;;;;;14.96;50.90;99354.13;1791865;78;20243;-82
2021/04/29 07:56:06;;;;;;;;;;;;;;;15.06;50.40;99357.17;1793963;78;20211;-82
2021/04/29 07:58:32;;;;;;;;;;;;;;;15.15;50.29;99351.15;1791577;78;20170;-82
2021/04/29 08:00:57;;;;;;;;;;;;;;;15.22;50.48;99347.14;1791998;78;20189;-81
2021/04/29 08:03:23;;;;;;;;;;;;;;;15.34;50.04;99349.48;1790190;79;21281;-82
2021/04/29 08:05:49;;;;;;;;;;;;;;;15.42;49.74;99344.45;1791514;78;20241;-82
2021/04/29 08:08:15;;;;;;;;;;;;;;;15.47;49.43;99346.50;1792773;78;20257;-82
2021/04/29 08:10:41;;;;;;;;;;;;;;;15.49;49.54;99351.09;1792255;78;20356;-81
2021/04/29 08:13:09;;;;;;;;;;;;;;;15.56;49.25;99343.39;1789394;78;20556;-83
2021/04/29 08:15:35;;;;;;;;;;;;;;;15.69;49.20;99342.56;1799135;78;20224;-82
2021/04/29 08:18:01;;;;;;;;;;;;;;;15.74;48.86;99337.94;1790332;78;20143;-81
2021/04/29 08:20:27;;;;;;;;;;;;;;;15.83;48.21;99333.21;1788912;78;20730;-83
2021/04/29 08:22:53;;;;;;;;;;;;;;;15.96;48.34;99328.66;1795171;78;20495;-81
2021/04/29 08:25:19;;;;;;;;;;;;;;;16.01;47.89;99325.35;1796953;78;20226;-83
2021/04/29 08:27:46;;;;;;;;;;;;;;;16.04;47.28;99320.94;1790178;78;21176;-83
2021/04/29 08:30:13;;;;;;;;;;;;;;;16.15;47.08;99310.94;1781378;78;20544;-79
2021/04/29 08:32:39;;;;;;;;;;;;;;;16.19;47.27;99310.50;1789506;78;20298;-81
2021/04/29 08:35:08;;;;;;;;;;;;;;;16.30;47.38;99310.66;1796010;78;20274;-80
2021/04/29 08:37:34;;;;;;;;;;;;;;;16.35;47.63;99312.68;1794456;78;20188;-80
2021/04/29 08:40:00;;;;;;;;;;;;;;;16.34;47.25;99312.37;1788356;78;21374;-82
2021/04/29 08:42:30;;;;;;;;;;;;;;;16.38;46.81;99311.44;1793191;78;20306;-81
2021/04/29 08:44:55;;;;;;;;;;;;;;;16.51;46.15;99310.00;1793626;78;20274;-82
2021/04/29 08:47:25;;;;;;;;;;;;;;;16.73;45.54;99306.45;1790505;78;20201;-82
2021/04/29 08:49:53;;;;;;;;;;;;;;;16.98;44.78;99305.66;1791069;78;20279;-82
2021/04/29 08:52:21;;;;;;;;;;;;;;;16.99;44.19;99301.97;1793085;78;21142;-82
2021/04/29 08:54:48;;;;;;;;;;;;;;;17.05;44.19;99301.09;1793035;78;20297;-82
2021/04/29 08:57:14;;;;;;;;;;;;;;;17.08;43.98;99307.33;1788569;78;20206;-81
2021/04/29 08:59:40;;;;;;;;;;;;;;;16.99;44.17;99307.31;1790081;78;20170;-84
2021/04/29 09:02:05;;;;;;;;;;;;;;;17.00;44.34;99306.28;1795094;78;20182;-83
2021/04/29 09:04:39;;;;;;;;;;;;;;;17.03;44.55;99298.65;1794912;78;21196;-81
2021/04/29 09:07:14;;;;;;;;;;;;;;;17.15;44.34;99296.09;1791911;78;20237;-80
2021/04/29 09:09:43;;;;;;;;;;;;;;;17.20;43.88;99290.89;1790373;78;21005;-84
2021/04/29 09:12:09;;;;;;;;;;;;;;;17.25;43.29;99281.42;1793570;78;20332;-85
2021/04/29 09:14:36;;;;;;;;;;;;;;;17.29;42.72;99271.92;1777162;78;20470;-82
2021/04/29 09:17:03;;;;;;;;;;;;;;;17.35;42.94;99266.50;1793127;78;21238;-85
2021/04/29 09:19:32;;;;;;;;;;;;;;;17.40;42.90;99269.84;1795103;78;20246;-84
2021/04/29 09:21:57;;;;;;;;;;;;;;;17.42;42.95;99258.44;1789327;78;20246;-83
2021/04/29 09:24:36;;;;;;;;;;;;;;;17.50;42.20;99263.47;1772542;78;20336;-83
2021/04/29 09:27:14;;;;;;;;;;;;;;;17.64;41.14;99257.98;1791402;78;20300;-83
2021/04/29 09:29:51;;;;;;;;;;;;;;;17.79;41.21;99262.41;1766556;78;21343;-81
2021/04/29 09:32:29;;;;;;;;;;;;;;;17.97;41.19;99258.09;1772760;78;20634;-84
2021/04/29 09:34:55;;;;;;;;;;;;;;;18.03;41.18;99261.20;1790675;78;20254;-82
2021/04/29 09:37:34;;;;;;;;;;;;;;;18.23;40.89;99266.27;1792028;78;20213;-82
2021/04/29 09:40:01;;;;;;;;;;;;;;;18.47;40.63;99261.77;1789608;78;20253;-80
2021/04/29 09:42:32;;;;;;;;;;;;;;;18.70;39.96;99260.19;1795359;78;21417;-83
2021/04/29 09:45:00;;;;;;;;;;;;;;;18.90;39.29;99258.54;1796812;78;20179;-82
2021/04/29 09:47:27;;;;;;;;;;;;;;;19.00;38.83;99252.89;1790322;78;20264;-83
2021/04/29 09:49:53;;;;;;;;;;;;;;;19.24;38.28;99255.55;1797840;78;20305;-84
2021/04/29 09:52:21;;;;;;;;;;;;;;;19.33;38.17;99242.62;1793476;78;20958;-84
2021/04/29 09:54:47;;;;;;;;;;;;;;;19.60;37.91;99240.20;1759691;80;21467;-84
2021/04/29 09:57:17;;;;;;;;;;;;;;;19.60;37.73;99238.86;1790825;78;21444;-83
2021/04/29 09:59:45;;;;;;;;;;;;;;;19.66;37.57;99239.25;1796421;78;20222;-82
2021/04/29 10:02:10;;;;;;;;;;;;;;;19.82;37.73;99234.22;1793911;78;20584;-83
2021/04/29 10:04:40;;;;;;;;;;;;;;;19.86;37.82;99223.31;1790145;78;20730;-84
2021/04/29 10:07:06;;;;;;;;;;;;;;;20.04;37.43;99213.73;1794148;78;21220;-82
2021/04/29 10:09:32;;;;;;;;;;;;;;;20.21;37.59;99211.58;1792831;78;20279;-81
2021/04/29 10:12:08;;;;;;;;;;;;;;;20.28;36.83;99202.87;1794829;78;20242;-84
2021/04/29 10:14:37;;;;;;;;;;;;;;;20.42;36.38;99206.84;1776207;78;20277;-83
2021/04/29 10:17:05;;;;;;;;;;;;;;;20.49;36.37;99206.66;1792989;78;20270;-82
2021/04/29 10:19:31;;;;;;;;;;;;;;;20.55;36.90;99202.20;1793765;78;21162;-84
2021/04/29 10:21:59;;;;;;;;;;;;;;;20.60;36.76;99204.95;1792492;78;20836;-80
2021/04/29 10:24:25;;;;;;;;;;;;;;;20.66;36.63;99202.66;1790318;78;20242;-82
2021/04/29 10:26:59;;;;;;;;;;;;;;;20.74;36.45;99203.61;1793329;78;20251;-83
2021/04/29 10:29:25;;;;;;;;;;;;;;;20.85;36.30;99199.70;1794695;78;20248;-83
2021/04/29 10:31:54;;;;;;;;;;;;;;;20.87;35.88;99198.95;1794298;78;21260;-82
2021/04/29 10:34:20;;;;;;;;;;;;;;;20.97;36.17;99201.25;1794192;78;21202;-83
2021/04/29 10:36:48;;;;;;;;;;;;;;;20.99;35.63;99192.95;1796084;78;20180;-84
2021/04/29 10:39:23;;;;;;;;;;;;;;;21.04;35.68;99187.63;1791814;78;20292;-86
2021/04/29 10:42:09;;;;;;;;;;;;;;;21.15;36.01;99188.03;1793979;78;20274;-84
2021/04/29 10:44:41;;;;;;;;;;;;;;;21.23;36.16;99177.93;1792324;78;21194;-83
2021/04/29 10:47:06;;;;;;;;;;;;;;;21.19;36.47;99182.97;1791072;78;20298;-86
2021/04/29 10:49:34;;;;;;;;;;;;;;;21.21;36.10;99186.23;1792193;78;20265;-85
2021/04/29 10:52:00;;;;;;;;;;;;;;;21.24;35.06;99169.63;1795226;78;20279;-83
2021/04/29 10:54:29;;;;;;;;;;;;;;;21.26;34.53;99184.14;1794689;78;20242;-83
2021/04/29 10:57:06;;;;;;;;;;;;;;;21.27;35.44;99184.41;1791232;78;21230;-83
2021/04/29 10:59:42;;;;;;;;;;;;;;;21.40;36.23;99177.32;1793466;78;20265;-83
2021/04/29 11:02:23;;;;;;;;;;;;;;;21.56;36.02;99171.61;1790234;78;20262;-86
2021/04/29 11:04:51;;;;;;;;;;;;;;;21.66;35.87;99170.92;1790572;78;20282;-81
2021/04/29 11:07:21;;;;;;;;;;;;;;;21.88;35.27;99168.97;1792420;78;20311;-84
2021/04/29 11:10:07;;;;;;;;;;;;;;;21.97;35.29;99171.19;1796307;78;21268;-82
2021/04/29 11:12:51;;;;;;;;;;;;;;;22.08;34.14;99168.88;1798638;78;20537;-82
2021/04/29 11:15:31;;;;;;;;;;;;;;;22.15;33.64;99164.09;1793941;78;20258;-82
2021/04/29 11:18:09;;;;;;;;;;;;;;;22.12;34.03;99163.25;1793545;78;20289;-82
2021/04/29 11:20:56;;;;;;;;;;;;;;;22.24;34.15;99159.85;1796352;78;20277;-83
2021/04/29 11:23:27;;;;;;;;;;;;;;;22.15;34.32;99161.39;1796927;78;20515;-84
2021/04/29 11:26:09;;;;;;;;;;;;;;;22.28;34.18;99160.17;1801911;78;20269;-83
2021/04/29 11:28:35;;;;;;;;;;;;;;;22.34;33.44;99161.03;1800291;78;20257;-83
2021/04/29 11:31:03;;;;;;;;;;;;;;;22.35;34.26;99156.73;1800795;78;20245;-80
2021/04/29 11:33:37;;;;;;;;;;;;;;;22.43;34.82;99159.48;1805432;78;20267;-84
2021/04/29 11:36:22;;;;;;;;;;;;;;;22.53;35.04;99154.73;1802209;78;21168;-84
2021/04/29 11:38:55;;;;;;;;;;;;;;;22.64;34.97;99151.53;1804724;78;20242;-84
2021/04/29 11:41:24;;;;;;;;;;;;;;;22.63;35.09;99148.04;1799873;78;20258;-83
2021/04/29 11:44:05;;;;;;;;;;;;;;;22.69;35.39;99142.16;1800311;78;20848;-83
2021/04/29 11:46:31;;;;;;;;;;;;;;;22.51;35.61;99146.08;1806169;78;20836;-82
2021/04/29 11:49:06;;;;;;;;;;;;;;;22.68;34.93;99141.88;1787575;78;21275;-84
2021/04/29 11:51:33;;;;;;;;;;;;;;;22.56;34.82;99137.52;1807459;78;20286;-84
2021/04/29 11:54:04;;;;;;;;;;;;;;;22.65;35.21;99142.39;1806245;78;20550;-85
2021/04/29 11:56:39;;;;;;;;;;;;;;;22.68;34.79;99132.45;1805675;78;20484;-84
2021/04/29 11:59:05;;;;;;;;;;;;;;;22.69;34.99;99136.78;1808147;78;20259;-79
2021/04/29 12:01:32;;;;;;;;;;;;;;;22.70;35.07;99130.30;1781169;78;20964;-83
2021/04/29 12:03:57;;;;;;;;;;;;;;;22.78;35.02;99116.37;1811294;78;20254;-81
2021/04/29 12:06:23;;;;;;;;;;;;;;;22.75;35.63;99120.94;1809916;78;20519;-83
2021/04/29 12:08:48;;;;;;;;;;;;;;;22.93;35.57;99112.41;1800945;78;20211;-80
2021/04/29 12:11:16;;;;;;;;;;;;;;;22.99;35.55;99111.06;1779958;78;20752;-80
2021/04/29 12:13:53;;;;;;;;;;;;;;;23.09;34.95;99107.11;1798832;78;21168;-82
2021/04/29 12:16:29;;;;;;;;;;;;;;;23.18;34.89;99110.08;1805855;78;20949;-82
2021/04/29 12:18:56;;;;;;;;;;;;;;;23.22;34.96;99099.85;1806603;78;20305;-82
2021/04/29 12:21:22;;;;;;;;;;;;;;;23.23;34.33;99104.17;1805171;78;20649;-85
2021/04/29 12:23:58;;;;;;;;;;;;;;;23.58;34.00;99097.22;1783326;78;20264;-87
2021/04/29 12:26:37;;;;;;;;;;;;;;;23.57;33.34;99098.31;1787813;78;20617;-82
2021/04/29 12:29:13;;;;;;;;;;;;;;;23.70;33.43;99082.69;1771143;80;20213;-83
2021/04/29 12:31:41;;;;;;;;;;;;;;;23.72;33.29;99092.11;1794813;78;20251;-83
2021/04/29 12:34:15;;;;;;;;;;;;;;;23.75;31.81;99090.77;1795945;78;20260;-82
2021/04/29 12:36:53;;;;;;;;;;;;;;;23.80;31.42;99096.16;1795211;78;20293;-83
2021/04/29 12:39:20;;;;;;;;;;;;;;;23.93;30.91;99091.61;1790639;78;21160;-78
2021/04/29 12:41:55;;;;;;;;;;;;;;;23.54;28.79;99090.77;1794348;78;20270;-82
2021/04/29 12:44:47;;;;;;;;;;;;;;;23.70;29.17;99090.78;1791251;78;20625;-82
2021/04/29 12:47:14;;;;;;;;;;;;;;;23.85;30.31;99088.12;1788634;78;20320;-84
2021/04/29 12:49:40;;;;;;;;;;;;;;;23.83;31.18;99085.66;1788794;78;20613;-84
2021/04/29 12:52:08;;;;;;;;;;;;;;;23.83;31.59;99082.97;1777573;78;21375;-84
2021/04/29 12:54:34;;;;;;;;;;;;;;;23.79;32.33;99091.86;1789592;78;20235;-83